Rechercher aéroport 
image banner adimage banner adimage banner ad
image banner ad

36S - Happy Camp

Situé à Happy Camp, United States

ICAO - 36S, IATA -

Données fournies par Airmate  

Information générale

Coordonnées: N41°47'26" W123°23'20"
Élévation : 1209 feet MSL.
Variation magnétique : 18° East
Voir autres Aéroports à California

Données opérationnelles

Special qualification required
Heure actuelle UTC:
Heure actuelle locale:
Météo à : KCEC - Jack Mc Namara Field ( 70 km )
METAR: KCEC 180656Z AUTO 16012KT 7SM OVC022 16/11 A2994 RMK AO2 SLP140 T01610111 $
TAF: KCEC 180543Z 1806/1906 14010KT 6SM HZ OVC025 FM181000 17015KT 2SM -RA BR OVC007 FM181300 16015G25KT 1SM RA BKN007 BKN015 OVC040 WS020/20040KT FM181800 17011KT 2SM RA BKN010 OVC030 FM190100 17008KT 3SM -RA BR OVC007
Voir NOTAMs / SUP AIP / TFR affectant cet aéroport [VIEW]
Fréquences de communication: [VIEW]

Pistes:

Identifiant RWYQFULongueur (ft)Largeur (ft)SurfaceLDA (ft)
04300050ASPH
22300050ASPH

Coordonnées de l'aéroport

Adresse: Happy Camp United States

Vue satellite de 36S